• Join FlightAware (Why Join?)
  • Login
  • US Flag 
07:54AM EDT


 

Airport Tracker/Info


-or-


 

Live Flight TrackerFlight Track Log ✈ EJA829P ✈ 19-Jul-2013 ✈ KDSM - KSAN

Flight Track Log - Related Links

Times and Time Zones

All times are in EDT time to prevent confusion due to time zone crossing. See the EJA829P flight status page for this flight to view local times or setup timezone preferences in your user account.

Time Position Orientation Groundspeed Altitude Reporting Facility
EDT Latitude Longitude Course Direction KTS MPH feet Rate Location/Type
04:48PM 41.5214 -93.6853 251° West 171 197 2,500  Level Minneapolis Center
04:49PM 41.4919 -93.7981 251° West 231 266 5,500 2,520 Climbing Minneapolis Center
04:50PM 41.4731 -93.9000 256° West 260 299 8,600 2,520 Climbing Minneapolis Center
04:51PM 41.4578 -93.9914 257° West 269 310 10,800 2,340 Climbing Minneapolis Center
04:53PM 41.4383 -94.0939 256° West 283 326 13,500 2,220 Climbing Minneapolis Center
04:54PM 41.4203 -94.1997 257° West 292 336 15,500 2,160 Climbing Minneapolis Center
04:55PM 41.3975 -94.3283 257° West 305 351 18,000 2,100 Climbing Minneapolis Center
04:56PM 41.3742 -94.4436 255° West 317 365 19,900 1,680 Climbing Minneapolis Center
04:57PM 41.3531 -94.5628 257° West 326 375 21,500 1,560 Climbing Minneapolis Center
04:58PM 41.3303 -94.6853 256° West 335 386 23,200 1,560 Climbing Minneapolis Center
04:59PM 41.3025 -94.8317 256° West 339 390 24,800 1,380 Climbing Minneapolis Center
05:00PM 41.2775 -94.9564 255° West 343 395 26,100 1,080 Climbing Minneapolis Center
05:01PM 41.2539 -95.0836 256° West 348 400 27,100 960 Climbing Minneapolis Center
05:02PM 41.2300 -95.2136 256° West 359 413 28,100 900 Climbing Minneapolis Center
05:03PM 41.2050 -95.3442 256° West 364 419 29,000 900 Climbing Minneapolis Center
05:04PM 41.1781 -95.4753 255° West 367 422 30,000 1,020 Climbing Minneapolis Center
05:05PM 41.1478 -95.6278 255° West 364 419 31,200 900 Climbing Minneapolis Center
05:06PM 41.1303 -95.7181 256° West 365 420 31,900 900 Climbing Minneapolis Center
05:07PM 41.0936 -95.8922 254° West 363 418 33,100 1,140 Climbing Minneapolis Center
05:08PM 41.0672 -96.0236 255° West 364 419 34,300 1,020 Climbing Minneapolis Center
05:09PM 41.0422 -96.1531 256° West 362 417 35,300 960 Climbing Minneapolis Center
05:10PM 41.0167 -96.2825 255° West 361 415 36,300 960 Climbing Minneapolis Center
05:11PM 40.9908 -96.4075 255° West 355 409 37,300 960 Climbing Minneapolis Center
05:12PM 40.9653 -96.5319 255° West 351 404 38,300 960 Climbing Minneapolis Center
05:13PM 40.9400 -96.6553 255° West 349 402 39,300 720 Climbing Minneapolis Center
05:14PM 40.9067 -96.7989 253° West 343 395 40,000 300 Climbing Minneapolis Center
05:15PM 40.8381 -96.9314 236° Southwest 371 427 40,100 480 Climbing Minneapolis Center
05:17PM 40.7664 -97.0281 226° Southwest 372 428 41,000 420 Climbing Minneapolis Center
05:18PM 40.6933 -97.1239 225° Southwest 369 425 41,000  Level Minneapolis Center
05:19PM 40.6203 -97.2247 226° Southwest 376 433 41,100 420 Climbing Minneapolis Center
05:20PM 40.5614 -97.3378 236° Southwest 373 429 41,900 720 Climbing Minneapolis Center
05:21PM 40.5164 -97.4881 249° West 363 418 42,700 480 Climbing Minneapolis Center
05:22PM 40.4819 -97.6081 249° West 355 409 43,000 120 Climbing Minneapolis Center
05:23PM 40.4464 -97.7314 249° West 358 412 43,000  Level Minneapolis Center
05:24PM 40.4092 -97.8569 249° West 365 420 43,000  Level Minneapolis Center
05:25PM 40.3711 -97.9831 248° West 369 425 43,000  Level Minneapolis Center
05:26PM 40.3322 -98.1103 248° West 373 429 43,000  Level Minneapolis Center
05:27PM 40.2942 -98.2406 249° West 378 435 43,000  Level Minneapolis Center
05:28PM 40.2519 -98.3953 250° West 376 433 43,000  Level Minneapolis Center
05:29PM 40.2319 -98.5294 259° West 375 432 43,000  Level Minneapolis Center
05:30PM 40.2119 -98.6625 259° West 372 428 43,000  Level Minneapolis Center
05:31PM 40.1939 -98.7956 260° West 371 427 43,000  Level Minneapolis Center
05:32PM 40.1753 -98.9283 260° West 371 427 43,000  Level Minneapolis Center
05:33PM 40.1506 -99.0597 256° West 372 428 43,000  Level Minneapolis Center
05:34PM 40.0983 -99.1761 240° Southwest 371 427 43,000  Level Minneapolis Center
05:35PM 40.0050 -99.2903 223° Southwest 381 438 43,000  Level Minneapolis Center
05:36PM 39.9239 -99.3822 221° Southwest 384 442 43,000  Level Minneapolis Center
05:37PM 39.8458 -99.4775 223° Southwest 386 444 43,000  Level Denver Center
05:38PM 39.7758 -99.5836 229° Southwest 386 444 43,000  Level Denver Center
05:39PM 39.7142 -99.6967 235° Southwest 383 441 43,000  Level Denver Center
05:40PM 39.6536 -99.8128 236° Southwest 386 444 43,000  Level Denver Center
05:41PM 39.5931 -99.9297 236° Southwest 389 448 43,000  Level Denver Center
05:42PM 39.5328 -100.0561 238° Southwest 384 442 43,000  Level Denver Center
05:43PM 39.4750 -100.1928 241° Southwest 387 445 43,000  Level Denver Center
05:44PM 39.4264 -100.3119 242° Southwest 389 448 43,000  Level Denver Center
05:45PM 39.3700 -100.4497 242° Southwest 389 448 43,000  Level Denver Center
05:46PM 39.3219 -100.5708 243° Southwest 391 450 43,000  Level Denver Center
05:48PM 39.2578 -100.7033 238° Southwest 392 451 43,000  Level Denver Center
05:49PM 39.1939 -100.8083 232° Southwest 390 449 43,000  Level Denver Center
05:50PM 39.1197 -100.9347 233° Southwest 393 452 43,000  Level Denver Center
05:51PM 39.0550 -101.0422 232° Southwest 394 453 43,000  Level Denver Center
05:52PM 38.9833 -101.1672 234° Southwest 393 452 43,000  Level Denver Center
05:53PM 38.9178 -101.2739 232° Southwest 396 456 43,000  Level Denver Center
05:54PM 38.8425 -101.3992 232° Southwest 397 457 43,000  Level Denver Center
05:55PM 38.7789 -101.5067 233° Southwest 396 456 43,000  Level Denver Center
05:56PM 38.7167 -101.6161 234° Southwest 397 457 43,000  Level Denver Center
05:57PM 38.6503 -101.7486 237° Southwest 397 457 43,000  Level Denver Center
05:58PM 38.5922 -101.8622 237° Southwest 399 459 43,000  Level Denver Center
05:59PM 38.5194 -101.9914 234° Southwest 401 461 43,000  Level Denver Center
06:00PM 38.4583 -102.1028 235° Southwest 403 464 43,000  Level Denver Center
06:01PM 38.3856 -102.2322 234° Southwest 404 465 43,000  Level Denver Center
06:02PM 38.3275 -102.3478 237° Southwest 405 466 43,000  Level Denver Center
06:03PM 38.2622 -102.4833 239° Southwest 405 466 43,000  Level Denver Center
06:04PM 38.2128 -102.6036 242° Southwest 404 465 43,000  Level Denver Center
06:05PM 38.1578 -102.7467 244° Southwest 404 465 43,000  Level Denver Center
06:06PM 38.1086 -102.8686 243° Southwest 405 466 43,000  Level Denver Center
06:07PM 38.0522 -103.0114 243° Southwest 407 468 43,000  Level Denver Center
06:08PM 38.0081 -103.1317 245° Southwest 406 467 43,000  Level Denver Center
06:10PM 37.9039 -103.3967 244° Southwest 407 468 43,000  Level Denver Center
06:11PM 37.8486 -103.5408 244° Southwest 406 467 43,000  Level Denver Center
06:12PM 37.8106 -103.6678 249° West 403 464 43,000  Level Denver Center
06:13PM 37.7547 -103.8125 244° Southwest 409 471 43,000  Level Denver Center
06:14PM 37.7097 -103.9353 245° Southwest 406 467 43,000  Level Denver Center
06:15PM 37.6519 -104.0792 243° Southwest 423 487 43,000  Level Denver Center
06:16PM 37.5939 -104.2197 243° Southwest 412 474 43,000  Level Denver Center
06:18PM 37.5444 -104.3400 243° Southwest 409 471 43,000  Level Denver Center
06:19PM 37.4872 -104.4806 243° Southwest 406 467 43,000  Level Denver Center
06:20PM 37.4383 -104.6017 243° Southwest 406 467 43,000  Level Denver Center
06:21PM 37.3808 -104.7439 243° Southwest 408 470 43,000  Level Denver Center
06:22PM 37.3325 -104.8664 244° Southwest 409 471 43,000  Level Denver Center
06:23PM 37.2764 -105.0097 244° Southwest 410 472 43,000  Level Denver Center
06:24PM 37.2294 -105.1325 244° Southwest 408 470 43,000  Level Denver Center
06:25PM 37.1806 -105.2547 243° Southwest 409 471 43,100 480 Climbing Denver Center
06:26PM 37.1394 -105.4011 251° West 397 457 44,000 660 Climbing Denver Center
06:27PM 37.1133 -105.5725 259° West 393 452 44,700 420 Climbing Denver Center
06:28PM 37.0939 -105.7003 259° West 389 448 45,000 60 Climbing Denver Center
06:30PM 37.0303 -105.9719 254° West 399 459 45,000  Level Denver Center
06:31PM 36.9953 -106.1256 254° West 404 465 45,000  Level Denver Center
06:32PM 36.9617 -106.2489 251° West 403 464 45,000  Level Denver Center
06:33PM 36.9183 -106.3975 250° West 407 468 45,000  Level Denver Center
06:34PM 36.8803 -106.5242 249° West 407 468 45,000  Level Denver Center
06:35PM 36.8375 -106.6736 250° West 409 471 45,000  Level Denver Center
06:36PM 36.7981 -106.7994 249° West 408 470 45,000  Level Denver Center
06:37PM 36.7542 -106.9483 250° West 409 471 45,000  Level Denver Center
06:38PM 36.7342 -107.0822 259° West 411 473 45,000  Level Denver Center
06:39PM 36.6939 -107.2094 248° West 411 473 45,000  Level Denver Center
06:40PM 36.6472 -107.3578 249° West 413 475 45,000  Level Denver Center
06:42PM 36.6081 -107.4861 249° West 414 476 45,000  Level Denver Center
06:43PM 36.5622 -107.6342 249° West 411 473 45,000  Level Denver Center
06:44PM 36.5236 -107.7608 249° West 409 471 45,000  Level Denver Center
06:45PM 36.4781 -107.9072 249° West 408 470 45,000  Level Denver Center
06:46PM 36.4389 -108.0319 249° West 408 470 45,000  Level Denver Center
06:47PM 36.3922 -108.1775 248° West 407 468 45,000  Level Denver Center
06:48PM 36.3536 -108.3039 249° West 408 470 45,000  Level Denver Center
06:49PM 36.3083 -108.4508 249° West 408 470 45,000  Level Denver Center
06:50PM 36.2681 -108.5769 248° West 410 472 45,000  Level Denver Center
06:52PM 36.1974 -108.7915 248° West  Level FlightAware Approximate
06:53PM 36.1375 -108.9758 248° West 433 498 45,000  Level Albuquerque Center
06:54PM 36.0911 -109.1192 247° West 416 479 45,000  Level Denver Center
06:55PM 36.0695 -109.1769 247° West  Level FlightAware Approximate
06:56PM 36.0114 -109.3519 247° West 423 487 45,000  Level Los Angeles Center
06:57PM 35.9686 -109.4833 248° West 412 474 45,000  Level Los Angeles Center
06:58PM 35.9258 -109.6142 248° West 411 473 45,000  Level Los Angeles Center
06:59PM 35.8817 -109.7442 247° West 412 474 45,000  Level Los Angeles Center
07:00PM 35.8256 -109.8678 241° Southwest 413 475 45,000  Level Los Angeles Center
07:01PM 35.7517 -110.0094 237° Southwest 411 473 45,000  Level Los Angeles Center
07:02PM 35.6889 -110.1264 237° Southwest 410 472 45,000  Level Los Angeles Center
07:03PM 35.6275 -110.2400 236° Southwest 402 463 45,000  Level Los Angeles Center
07:04PM 35.5908 -110.3653 250° West 390 449 45,000  Level Los Angeles Center
07:05PM 35.5442 -110.5036 248° West 399 459 45,000  Level Los Angeles Center
07:06PM 35.5044 -110.6294 249° West 399 459 45,000  Level Los Angeles Center
07:07PM 35.4625 -110.7597 248° West 411 473 45,000  Level Los Angeles Center
07:08PM 35.4189 -110.8908 248° West 417 480 45,000  Level Los Angeles Center
07:09PM 35.3761 -111.0233 248° West 421 484 45,000  Level Los Angeles Center
07:10PM 35.3264 -111.1756 248° West 426 490 45,000  Level Los Angeles Center
07:11PM 35.2828 -111.3094 248° West 425 489 45,000  Level Los Angeles Center
07:12PM 35.2289 -111.4689 248° West 426 490 45,000  Level Albuquerque Center
07:13PM 35.1853 -111.6017 248° West 423 487 45,000  Level Albuquerque Center
07:14PM 35.1378 -111.7400 247° West 422 486 45,000  Level Albuquerque Center
07:15PM 35.0936 -111.8717 248° West 421 484 45,000  Level Albuquerque Center
07:16PM 35.0489 -112.0050 248° West 425 489 45,000  Level Albuquerque Center
07:17PM 35.0039 -112.1367 247° West 424 488 45,000  Level Albuquerque Center
07:18PM 34.9506 -112.2939 248° West 421 484 45,000  Level Albuquerque Center
07:19PM 34.9053 -112.4256 247° West 421 484 45,000  Level Albuquerque Center
07:21PM 34.8592 -112.5592 247° West 425 489 45,000  Level Albuquerque Center
07:22PM 34.8128 -112.6928 247° West 427 491 45,000  Level Albuquerque Center
07:23PM 34.7658 -112.8261 247° West 428 493 45,000  Level Albuquerque Center
07:24PM 34.7200 -112.9586 247° West 427 491 45,000 -120 Level Albuquerque Center
07:25PM 34.6744 -113.0881 247° West 421 484 44,800 -840 Descending Albuquerque Center
07:26PM 34.6289 -113.2153 247° West 416 479 43,300 -1,620 Descending Albuquerque Center
07:27PM 34.5844 -113.3439 247° West 415 478 41,600 -1,800 Descending Albuquerque Center
07:28PM 34.5294 -113.5011 247° West 418 481 39,700 -1,800 Descending Albuquerque Center
07:29PM 34.4831 -113.6328 247° West 422 486 38,000 -1,680 Descending Albuquerque Center
07:30PM 34.4328 -113.7653 245° Southwest 424 488 36,300 -1,860 Descending Albuquerque Center
07:31PM 34.3853 -113.8997 247° West 430 495 34,300 -1,140 Descending Albuquerque Center
07:32PM 34.3369 -114.0364 247° West 437 503 34,000 -420 Descending Albuquerque Center
07:33PM 34.2878 -114.1717 246° West 438 504 33,500 -1,020 Descending Albuquerque Center
07:34PM 34.2378 -114.3075 246° West 440 506 32,000 -1,620 Descending Albuquerque Center
07:35PM 34.1886 -114.4431 246° West 439 505 30,300 -1,740 Descending Albuquerque Center
07:36PM 34.1386 -114.5792 246° West 441 507 28,500 -1,020 Descending Albuquerque Center
07:37PM 34.0661 -114.7619 244° Southwest 440 506 28,000 -240 Descending Los Angeles Center
07:38PM 34.0097 -114.8903 242° Southwest 435 501 28,000 -480 Level Los Angeles Center
07:39PM 33.9536 -115.0175 242° Southwest 431 496 27,100 -1,320 Descending Los Angeles Center
07:40PM 33.8858 -115.1706 242° Southwest 434 499 25,300 -1,500 Descending Los Angeles Center
07:41PM 33.8308 -115.2939 242° Southwest 422 486 24,000 -660 Descending Los Angeles Center
07:42PM 33.7761 -115.4172 242° Southwest 419 482 24,000  Level Los Angeles Center
07:43PM 33.7200 -115.5400 241° Southwest 421 484 24,000  Level Los Angeles Center
07:44PM 33.6658 -115.6644 242° Southwest 422 486 24,000  Level Los Angeles Center
07:46PM 33.5936 -115.8100 239° Southwest 422 486 24,000 -240 Level Los Angeles Center
07:47PM 33.5256 -115.9258 235° Southwest 424 488 23,600 -1,260 Descending Los Angeles Center
07:48PM 33.4364 -116.0147 220° Southwest 415 478 21,400 -2,100 Descending Los Angeles Center
07:49PM 33.3517 -116.0997 220° Southwest 404 465 19,300 -2,220 Descending Los Angeles Center
07:50PM 33.2689 -116.1828 220° Southwest 392 451 16,900 -2,100 Descending Los Angeles Center
07:51PM 33.1897 -116.2614 220° Southwest 377 434 15,000 -2,040 Descending Los Angeles Center
07:52PM 33.0972 -116.3533 220° Southwest 365 420 12,800 -1,500 Descending Los Angeles Center
07:53PM 33.0244 -116.4253 220° Southwest 359 413 12,000 -420 Descending Los Angeles Center
07:54PM 32.9406 -116.4797 209° Southwest 344 396 12,000 -780 Level Los Angeles Center
07:55PM 32.8406 -116.5378 206° Southwest 344 396 10,500 -960 Descending Los Angeles Center
07:56PM 32.7567 -116.5808 203° Southwest 336 387 10,000 -540 Descending Los Angeles Center
07:57PM 32.6881 -116.6150 203° Southwest 281 323 9,400 -1,020 Descending Los Angeles Center
07:58PM 32.6339 -116.6614 216° Southwest 266 306 7,900 -1,500 Descending Los Angeles Center
07:59PM 32.6231 -116.7378 260° West 245 282 6,300 -960 Descending Los Angeles Center
08:00PM 32.6408 -116.8106 286° West 232 267 6,000 -540 Descending Los Angeles Center
08:01PM 32.6633 -116.9017 286° West 236 272 5,300 -1,080 Descending Los Angeles Center
08:02PM 32.6833 -116.9500 296° West 227 261 4,200 -1,320 Descending Southern California TRACON
08:03PM 32.6833 -117.0167 270° West 191 220 3,100 -1,020 Descending Southern California TRACON
08:04PM 32.7000 -117.0667 292° West 151 174 2,200 -900 Descending Southern California TRACON
08:05PM 32.7167 -117.1000 301° West 133 153 1,300 -720 Descending Southern California TRACON
08:06PM 32.7167 -117.1500 270° West 129 148 800 -540 Descending Southern California TRACON
08:06PM 32.7261 -117.1597 319° Northwest 128 147 500 -600 Descending Los Angeles Center
08:08PM 32.7333 -117.1833 281° West  Level FlightAware Approximate
08:15PM 32.7336 -117.1897 281° West  Level Estimated